Fonthida Naree — HSJR — position and weather

sailwx.info

Track history (hours):
 
Tides and Currents Weather Stations Pressure Air Temp Water Temp Dewpoint Dewpoint Depression Visibility Wind Speed Wind Dir Waves Ship Positions

Fonthida Naree

Last reported at 2014-Dec-20 00:29 UTC. Time now 2014-Dec-21 06:07 UTC.
Position N 36°33' E 013°59'.

Length 170 m; draft 9.1 m.

Type: Cargo ship. MMSI: 567265000.

Date/timePositionNaut miles runAvg speedWind from/ knotsBaromVisibWave heightAir tempDewpointWater temp
2014-Dec-20 00:29N 36°33' E 013°59'1112.1
2014-Dec-19 23:33N 36°30' E 014°12'47911.7
2014-Dec-18 06:28N 37°19' E 024°08'1112.5
2014-Dec-18 05:33N 37°27' E 024°18'1412.8
2014-Dec-18 04:29N 37°37' E 024°30'1213.5
2014-Dec-18 03:33N 37°49' E 024°34'2512.3
2014-Dec-18 01:33N 38°12' E 024°45'167 7.4
2014-Dec-17 03:04N 40°27' E 026°53'9112.1
2014-Dec-16 19:31N 40°55' E 028°47'6 1.9
2014-Dec-16 16:32N 40°57' E 028°54'3 3.1
2014-Dec-16 15:33N 40°58' E 028°58'  
2014-Dec-13 21:18N 46°19' E 030°55'912.7
2014-Dec-13 20:33N 46°28' E 030°55'7 7.5
2014-Dec-13 19:34N 46°35' E 031°00'2 0.2
2014-Dec-13 10:22N 46°37' E 031°01'0 0.0
2014-Dec-13 07:28N 46°37' E 031°01'  
2014-Dec-10 19:33N 44°32' E 037°37'1111.3
2014-Dec-10 18:33N 44°39' E 037°50'5 5.0
2014-Dec-10 17:31N 44°44' E 037°47'0 0.0
2014-Dec-10 16:31N 44°44' E 037°47'0 0.0
2014-Dec-10 15:31N 44°44' E 037°47'0 0.0
2014-Dec-10 14:31N 44°44' E 037°47'0 0.0
2014-Dec-10 13:31N 44°44' E 037°47'0 0.0
2014-Dec-10 12:31N 44°44' E 037°47'0 0.0
2014-Dec-10 11:31N 44°44' E 037°47'0 0.0
2014-Dec-10 10:28N 44°44' E 037°47'0 0.0
2014-Dec-10 09:31N 44°44' E 037°47'0 0.0
2014-Dec-10 08:31N 44°44' E 037°47'0 0.0
2014-Dec-10 07:31N 44°44' E 037°47'0 0.0
2014-Dec-10 06:31N 44°44' E 037°47'0 0.0
2014-Dec-10 05:31N 44°44' E 037°47'0 0.0
2014-Dec-10 04:31N 44°44' E 037°47'0 0.0
2014-Dec-10 03:31N 44°44' E 037°47'0 0.0
2014-Dec-10 02:31N 44°44' E 037°47'0 0.0
2014-Dec-10 01:31N 44°44' E 037°47'0 0.0
2014-Dec-10 00:31N 44°44' E 037°47'  
Track history (hours):
 
Tides and Currents Weather Stations Pressure Air Temp Water Temp Dewpoint Dewpoint Depression Visibility Wind Speed Wind Dir Waves Ship Positions

Fonthida Naree

Last reported at 2014-Dec-20 00:29 UTC. Time now 2014-Dec-21 06:07 UTC.
Position N 36°33' E 013°59'.

Length 170 m; draft 9.1 m.

Type: Cargo ship. MMSI: 567265000.

Date/timePositionNaut miles runAvg speedWind from/ knotsBaromVisibWave heightAir tempDewpointWater temp
2014-Dec-20 00:29N 36°33' E 013°59'1112.1
2014-Dec-19 23:33N 36°30' E 014°12'47911.7
2014-Dec-18 06:28N 37°19' E 024°08'1112.5
2014-Dec-18 05:33N 37°27' E 024°18'1412.8
2014-Dec-18 04:29N 37°37' E 024°30'1213.5
2014-Dec-18 03:33N 37°49' E 024°34'2512.3
2014-Dec-18 01:33N 38°12' E 024°45'167 7.4
2014-Dec-17 03:04N 40°27' E 026°53'9112.1
2014-Dec-16 19:31N 40°55' E 028°47'6 1.9
2014-Dec-16 16:32N 40°57' E 028°54'3 3.1
2014-Dec-16 15:33N 40°58' E 028°58'  
2014-Dec-13 21:18N 46°19' E 030°55'912.7
2014-Dec-13 20:33N 46°28' E 030°55'7 7.5
2014-Dec-13 19:34N 46°35' E 031°00'2 0.2
2014-Dec-13 10:22N 46°37' E 031°01'0 0.0
2014-Dec-13 07:28N 46°37' E 031°01'  
2014-Dec-10 19:33N 44°32' E 037°37'1111.3
2014-Dec-10 18:33N 44°39' E 037°50'5 5.0
2014-Dec-10 17:31N 44°44' E 037°47'0 0.0
2014-Dec-10 16:31N 44°44' E 037°47'0 0.0
2014-Dec-10 15:31N 44°44' E 037°47'0 0.0
2014-Dec-10 14:31N 44°44' E 037°47'0 0.0
2014-Dec-10 13:31N 44°44' E 037°47'0 0.0
2014-Dec-10 12:31N 44°44' E 037°47'0 0.0
2014-Dec-10 11:31N 44°44' E 037°47'0 0.0
2014-Dec-10 10:28N 44°44' E 037°47'0 0.0
2014-Dec-10 09:31N 44°44' E 037°47'0 0.0
2014-Dec-10 08:31N 44°44' E 037°47'0 0.0
2014-Dec-10 07:31N 44°44' E 037°47'0 0.0
2014-Dec-10 06:31N 44°44' E 037°47'0 0.0
2014-Dec-10 05:31N 44°44' E 037°47'0 0.0
2014-Dec-10 04:31N 44°44' E 037°47'0 0.0
2014-Dec-10 03:31N 44°44' E 037°47'0 0.0
2014-Dec-10 02:31N 44°44' E 037°47'0 0.0
2014-Dec-10 01:31N 44°44' E 037°47'0 0.0
2014-Dec-10 00:31N 44°44' E 037°47'  

Dump ship's entire track history